sensor_id;sensor_type;location;lat;lon;timestamp;P1;durP1;ratioP1;P2;durP2;ratioP2
63217;SDS011;49314;48.278;16.378;2023-07-20T00:00:57;7.60;;;7.00;;
63217;SDS011;49314;48.278;16.378;2023-07-20T00:03:22;6.32;;;5.68;;
63217;SDS011;49314;48.278;16.378;2023-07-20T00:05:50;6.97;;;6.38;;
63217;SDS011;49314;48.278;16.378;2023-07-20T00:08:16;7.00;;;6.35;;
63217;SDS011;49314;48.278;16.378;2023-07-20T00:10:42;7.72;;;7.03;;
63217;SDS011;49314;48.278;16.378;2023-07-20T00:13:07;6.82;;;6.22;;
63217;SDS011;49314;48.278;16.378;2023-07-20T00:15:33;6.53;;;5.47;;
63217;SDS011;49314;48.278;16.378;2023-07-20T00:17:58;6.47;;;5.95;;
63217;SDS011;49314;48.278;16.378;2023-07-20T00:20:24;6.67;;;6.17;;
63217;SDS011;49314;48.278;16.378;2023-07-20T00:22:49;7.30;;;6.70;;
63217;SDS011;49314;48.278;16.378;2023-07-20T00:25:16;7.70;;;6.78;;
63217;SDS011;49314;48.278;16.378;2023-07-20T00:27:41;7.82;;;7.22;;
63217;SDS011;49314;48.278;16.378;2023-07-20T00:30:06;6.93;;;6.43;;
63217;SDS011;49314;48.278;16.378;2023-07-20T00:32:32;7.63;;;7.00;;
63217;SDS011;49314;48.278;16.378;2023-07-20T00:34:57;7.40;;;6.80;;
63217;SDS011;49314;48.278;16.378;2023-07-20T00:37:22;6.32;;;5.88;;
63217;SDS011;49314;48.278;16.378;2023-07-20T00:39:48;6.90;;;6.30;;
63217;SDS011;49314;48.278;16.378;2023-07-20T00:42:13;6.97;;;6.37;;
63217;SDS011;49314;48.278;16.378;2023-07-20T00:44:38;6.57;;;6.00;;
63217;SDS011;49314;48.278;16.378;2023-07-20T00:47:04;7.00;;;6.40;;
63217;SDS011;49314;48.278;16.378;2023-07-20T00:49:29;7.75;;;7.10;;
63217;SDS011;49314;48.278;16.378;2023-07-20T00:51:54;7.05;;;6.45;;
63217;SDS011;49314;48.278;16.378;2023-07-20T00:54:20;7.57;;;6.97;;
63217;SDS011;49314;48.278;16.378;2023-07-20T00:56:45;6.47;;;5.97;;
63217;SDS011;49314;48.278;16.378;2023-07-20T00:59:11;7.57;;;6.97;;
63217;SDS011;49314;48.278;16.378;2023-07-20T01:01:36;6.93;;;5.95;;
63217;SDS011;49314;48.278;16.378;2023-07-20T01:04:01;7.15;;;6.07;;
63217;SDS011;49314;48.278;16.378;2023-07-20T01:06:32;7.30;;;6.73;;
63217;SDS011;49314;48.278;16.378;2023-07-20T01:13:56;6.85;;;6.25;;
63217;SDS011;49314;48.278;16.378;2023-07-20T01:16:22;7.10;;;6.60;;
63217;SDS011;49314;48.278;16.378;2023-07-20T01:18:47;6.43;;;5.93;;
63217;SDS011;49314;48.278;16.378;2023-07-20T01:21:13;7.93;;;7.33;;
63217;SDS011;49314;48.278;16.378;2023-07-20T01:26:27;7.38;;;6.78;;
63217;SDS011;49314;48.278;16.378;2023-07-20T01:29:06;7.60;;;7.03;;
63217;SDS011;49314;48.278;16.378;2023-07-20T01:31:35;7.95;;;6.20;;
63217;SDS011;49314;48.278;16.378;2023-07-20T01:34:01;6.93;;;6.35;;
63217;SDS011;49314;48.278;16.378;2023-07-20T01:36:29;7.30;;;6.78;;
63217;SDS011;49314;48.278;16.378;2023-07-20T01:38:55;7.00;;;6.45;;
63217;SDS011;49314;48.278;16.378;2023-07-20T01:41:21;7.18;;;6.47;;
63217;SDS011;49314;48.278;16.378;2023-07-20T01:43:46;8.43;;;7.67;;
63217;SDS011;49314;48.278;16.378;2023-07-20T01:46:11;6.43;;;5.83;;
63217;SDS011;49314;48.278;16.378;2023-07-20T01:48:36;7.22;;;6.32;;
63217;SDS011;49314;48.278;16.378;2023-07-20T01:51:02;6.80;;;6.13;;
63217;SDS011;49314;48.278;16.378;2023-07-20T01:53:27;9.93;;;5.63;;
63217;SDS011;49314;48.278;16.378;2023-07-20T01:55:56;6.93;;;6.30;;
63217;SDS011;49314;48.278;16.378;2023-07-20T01:58:21;7.20;;;6.50;;
63217;SDS011;49314;48.278;16.378;2023-07-20T02:00:46;6.53;;;6.10;;
63217;SDS011;49314;48.278;16.378;2023-07-20T02:03:11;7.23;;;6.63;;
63217;SDS011;49314;48.278;16.378;2023-07-20T02:05:37;6.78;;;6.25;;
63217;SDS011;49314;48.278;16.378;2023-07-20T02:08:02;6.20;;;5.57;;
63217;SDS011;49314;48.278;16.378;2023-07-20T02:10:28;6.47;;;5.88;;
63217;SDS011;49314;48.278;16.378;2023-07-20T02:12:53;8.50;;;7.63;;
63217;SDS011;49314;48.278;16.378;2023-07-20T02:15:18;7.30;;;6.30;;
63217;SDS011;49314;48.278;16.378;2023-07-20T02:17:44;11.07;;;7.72;;
63217;SDS011;49314;48.278;16.378;2023-07-20T02:20:09;8.00;;;6.88;;
63217;SDS011;49314;48.278;16.378;2023-07-20T02:22:35;7.80;;;7.18;;
63217;SDS011;49314;48.278;16.378;2023-07-20T02:25:00;5.78;;;5.38;;
63217;SDS011;49314;48.278;16.378;2023-07-20T02:27:26;6.60;;;6.10;;
63217;SDS011;49314;48.278;16.378;2023-07-20T02:29:51;6.65;;;5.78;;
63217;SDS011;49314;48.278;16.378;2023-07-20T02:32:16;7.30;;;6.60;;
63217;SDS011;49314;48.278;16.378;2023-07-20T02:34:41;8.77;;;6.57;;
63217;SDS011;49314;48.278;16.378;2023-07-20T02:37:07;6.40;;;5.90;;
63217;SDS011;49314;48.278;16.378;2023-07-20T02:39:32;6.83;;;6.23;;
63217;SDS011;49314;48.278;16.378;2023-07-20T02:41:57;8.03;;;6.67;;
63217;SDS011;49314;48.278;16.378;2023-07-20T02:44:22;7.40;;;6.53;;
63217;SDS011;49314;48.278;16.378;2023-07-20T02:46:48;7.53;;;6.90;;
63217;SDS011;49314;48.278;16.378;2023-07-20T02:49:14;6.40;;;5.88;;
63217;SDS011;49314;48.278;16.378;2023-07-20T02:51:40;7.00;;;6.30;;
63217;SDS011;49314;48.278;16.378;2023-07-20T02:54:05;7.00;;;6.00;;
63217;SDS011;49314;48.278;16.378;2023-07-20T02:56:30;6.30;;;5.85;;
63217;SDS011;49314;48.278;16.378;2023-07-20T02:58:55;7.47;;;6.77;;
63217;SDS011;49314;48.278;16.378;2023-07-20T03:01:22;7.00;;;6.28;;
63217;SDS011;49314;48.278;16.378;2023-07-20T03:03:48;8.07;;;6.70;;
63217;SDS011;49314;48.278;16.378;2023-07-20T03:06:13;7.57;;;6.97;;
63217;SDS011;49314;48.278;16.378;2023-07-20T03:08:39;7.10;;;6.60;;
63217;SDS011;49314;48.278;16.378;2023-07-20T03:11:06;6.55;;;6.03;;
63217;SDS011;49314;48.278;16.378;2023-07-20T03:13:31;7.03;;;6.43;;
63217;SDS011;49314;48.278;16.378;2023-07-20T03:15:57;7.13;;;6.40;;
63217;SDS011;49314;48.278;16.378;2023-07-20T03:18:22;7.55;;;6.85;;
63217;SDS011;49314;48.278;16.378;2023-07-20T03:20:47;7.33;;;6.67;;
63217;SDS011;49314;48.278;16.378;2023-07-20T03:23:13;6.10;;;5.60;;
63217;SDS011;49314;48.278;16.378;2023-07-20T03:25:40;7.05;;;6.45;;
63217;SDS011;49314;48.278;16.378;2023-07-20T03:28:05;6.20;;;5.70;;
63217;SDS011;49314;48.278;16.378;2023-07-20T03:30:31;6.22;;;5.75;;
63217;SDS011;49314;48.278;16.378;2023-07-20T03:32:56;6.97;;;6.50;;
63217;SDS011;49314;48.278;16.378;2023-07-20T03:35:21;6.80;;;6.27;;
63217;SDS011;49314;48.278;16.378;2023-07-20T03:37:47;7.05;;;6.45;;
63217;SDS011;49314;48.278;16.378;2023-07-20T03:40:12;7.00;;;6.30;;
63217;SDS011;49314;48.278;16.378;2023-07-20T03:42:37;6.87;;;6.37;;
63217;SDS011;49314;48.278;16.378;2023-07-20T03:45:03;8.55;;;6.13;;
63217;SDS011;49314;48.278;16.378;2023-07-20T03:47:29;7.93;;;6.68;;
63217;SDS011;49314;48.278;16.378;2023-07-20T03:49:55;5.90;;;5.38;;
63217;SDS011;49314;48.278;16.378;2023-07-20T03:52:20;9.93;;;7.07;;
63217;SDS011;49314;48.278;16.378;2023-07-20T03:54:45;6.80;;;6.17;;
63217;SDS011;49314;48.278;16.378;2023-07-20T03:57:10;6.77;;;6.27;;
63217;SDS011;49314;48.278;16.378;2023-07-20T03:59:37;7.15;;;6.45;;
63217;SDS011;49314;48.278;16.378;2023-07-20T04:02:02;6.47;;;5.78;;
63217;SDS011;49314;48.278;16.378;2023-07-20T04:04:27;8.03;;;6.07;;
63217;SDS011;49314;48.278;16.378;2023-07-20T04:06:53;6.40;;;5.90;;
63217;SDS011;49314;48.278;16.378;2023-07-20T04:09:18;7.10;;;6.50;;
63217;SDS011;49314;48.278;16.378;2023-07-20T04:11:43;7.27;;;6.67;;
63217;SDS011;49314;48.278;16.378;2023-07-20T04:14:08;5.87;;;5.40;;
63217;SDS011;49314;48.278;16.378;2023-07-20T04:16:33;6.43;;;5.83;;
63217;SDS011;49314;48.278;16.378;2023-07-20T04:19:02;6.00;;;5.57;;
63217;SDS011;49314;48.278;16.378;2023-07-20T04:21:27;7.05;;;6.53;;
63217;SDS011;49314;48.278;16.378;2023-07-20T04:23:52;6.95;;;6.28;;
63217;SDS011;49314;48.278;16.378;2023-07-20T04:26:18;6.33;;;5.93;;
63217;SDS011;49314;48.278;16.378;2023-07-20T04:28:43;6.50;;;6.00;;
63217;SDS011;49314;48.278;16.378;2023-07-20T04:31:12;7.10;;;6.57;;
63217;SDS011;49314;48.278;16.378;2023-07-20T04:33:37;5.63;;;5.22;;
63217;SDS011;49314;48.278;16.378;2023-07-20T04:36:02;6.68;;;5.97;;
63217;SDS011;49314;48.278;16.378;2023-07-20T04:38:28;7.53;;;6.83;;
63217;SDS011;49314;48.278;16.378;2023-07-20T04:40:53;6.32;;;5.43;;
63217;SDS011;49314;48.278;16.378;2023-07-20T04:43:18;6.33;;;5.83;;
63217;SDS011;49314;48.278;16.378;2023-07-20T04:45:44;6.00;;;5.40;;
63217;SDS011;49314;48.278;16.378;2023-07-20T04:48:10;5.65;;;4.43;;
63217;SDS011;49314;48.278;16.378;2023-07-20T04:50:42;6.50;;;6.05;;
63217;SDS011;49314;48.278;16.378;2023-07-20T04:53:10;6.65;;;5.40;;
63217;SDS011;49314;48.278;16.378;2023-07-20T04:55:36;6.32;;;5.72;;
63217;SDS011;49314;48.278;16.378;2023-07-20T04:58:02;6.15;;;5.55;;
63217;SDS011;49314;48.278;16.378;2023-07-20T05:00:28;5.85;;;5.35;;
63217;SDS011;49314;48.278;16.378;2023-07-20T05:02:53;5.90;;;5.40;;
63217;SDS011;49314;48.278;16.378;2023-07-20T05:05:18;5.73;;;5.23;;
63217;SDS011;49314;48.278;16.378;2023-07-20T05:07:44;6.27;;;5.77;;
63217;SDS011;49314;48.278;16.378;2023-07-20T05:10:09;6.50;;;5.93;;
63217;SDS011;49314;48.278;16.378;2023-07-20T05:12:34;5.75;;;5.25;;
63217;SDS011;49314;48.278;16.378;2023-07-20T05:15:00;6.20;;;5.70;;
63217;SDS011;49314;48.278;16.378;2023-07-20T05:17:25;6.63;;;5.70;;
63217;SDS011;49314;48.278;16.378;2023-07-20T05:19:50;6.32;;;5.72;;
63217;SDS011;49314;48.278;16.378;2023-07-20T05:22:16;8.50;;;6.00;;
63217;SDS011;49314;48.278;16.378;2023-07-20T05:24:41;7.03;;;4.70;;
63217;SDS011;49314;48.278;16.378;2023-07-20T05:27:06;7.03;;;5.63;;
63217;SDS011;49314;48.278;16.378;2023-07-20T05:29:32;7.47;;;4.93;;
63217;SDS011;49314;48.278;16.378;2023-07-20T05:31:58;5.40;;;4.90;;
63217;SDS011;49314;48.278;16.378;2023-07-20T05:34:23;5.93;;;5.47;;
63217;SDS011;49314;48.278;16.378;2023-07-20T05:36:48;6.40;;;5.10;;
63217;SDS011;49314;48.278;16.378;2023-07-20T05:39:14;6.55;;;5.85;;
63217;SDS011;49314;48.278;16.378;2023-07-20T05:41:40;7.10;;;5.45;;
63217;SDS011;49314;48.278;16.378;2023-07-20T05:44:05;6.73;;;4.97;;
63217;SDS011;49314;48.278;16.378;2023-07-20T05:46:31;5.37;;;4.80;;
63217;SDS011;49314;48.278;16.378;2023-07-20T05:48:56;5.83;;;4.93;;
63217;SDS011;49314;48.278;16.378;2023-07-20T05:51:21;6.03;;;4.90;;
63217;SDS011;49314;48.278;16.378;2023-07-20T05:53:46;5.87;;;5.27;;
63217;SDS011;49314;48.278;16.378;2023-07-20T05:56:13;5.37;;;4.20;;
63217;SDS011;49314;48.278;16.378;2023-07-20T05:58:39;7.60;;;5.50;;
63217;SDS011;49314;48.278;16.378;2023-07-20T06:01:04;6.10;;;4.40;;
63217;SDS011;49314;48.278;16.378;2023-07-20T06:03:31;6.90;;;4.68;;
63217;SDS011;49314;48.278;16.378;2023-07-20T06:06:01;5.45;;;4.88;;
63217;SDS011;49314;48.278;16.378;2023-07-20T06:08:28;8.32;;;4.88;;
63217;SDS011;49314;48.278;16.378;2023-07-20T06:10:53;5.07;;;4.47;;
63217;SDS011;49314;48.278;16.378;2023-07-20T06:13:18;6.23;;;4.33;;
63217;SDS011;49314;48.278;16.378;2023-07-20T06:15:43;5.20;;;4.60;;
63217;SDS011;49314;48.278;16.378;2023-07-20T06:18:09;6.03;;;4.60;;
63217;SDS011;49314;48.278;16.378;2023-07-20T06:20:34;5.82;;;4.30;;
63217;SDS011;49314;48.278;16.378;2023-07-20T06:22:59;4.73;;;4.13;;
63217;SDS011;49314;48.278;16.378;2023-07-20T06:25:25;4.97;;;3.72;;
63217;SDS011;49314;48.278;16.378;2023-07-20T06:27:50;4.72;;;4.22;;
63217;SDS011;49314;48.278;16.378;2023-07-20T06:30:16;6.05;;;3.60;;
63217;SDS011;49314;48.278;16.378;2023-07-20T06:32:42;4.40;;;3.63;;
63217;SDS011;49314;48.278;16.378;2023-07-20T06:35:07;4.00;;;3.50;;
63217;SDS011;49314;48.278;16.378;2023-07-20T06:37:33;5.70;;;4.13;;
63217;SDS011;49314;48.278;16.378;2023-07-20T06:39:58;3.97;;;3.50;;
63217;SDS011;49314;48.278;16.378;2023-07-20T06:42:23;3.60;;;3.30;;
63217;SDS011;49314;48.278;16.378;2023-07-20T06:44:49;4.13;;;3.73;;
63217;SDS011;49314;48.278;16.378;2023-07-20T06:47:14;5.63;;;4.40;;
63217;SDS011;49314;48.278;16.378;2023-07-20T06:49:39;4.13;;;3.53;;
63217;SDS011;49314;48.278;16.378;2023-07-20T06:52:05;4.50;;;3.30;;
63217;SDS011;49314;48.278;16.378;2023-07-20T06:54:30;5.15;;;3.78;;
63217;SDS011;49314;48.278;16.378;2023-07-20T06:56:55;5.13;;;3.60;;
63217;SDS011;49314;48.278;16.378;2023-07-20T06:59:21;6.72;;;3.85;;
63217;SDS011;49314;48.278;16.378;2023-07-20T07:01:46;5.82;;;4.05;;
63217;SDS011;49314;48.278;16.378;2023-07-20T07:04:11;6.50;;;3.63;;
63217;SDS011;49314;48.278;16.378;2023-07-20T07:06:37;7.40;;;3.90;;
63217;SDS011;49314;48.278;16.378;2023-07-20T07:09:02;8.75;;;3.35;;
63217;SDS011;49314;48.278;16.378;2023-07-20T07:11:28;4.18;;;3.22;;
63217;SDS011;49314;48.278;16.378;2023-07-20T07:13:53;6.93;;;3.90;;
63217;SDS011;49314;48.278;16.378;2023-07-20T07:16:19;5.57;;;3.47;;
63217;SDS011;49314;48.278;16.378;2023-07-20T07:18:44;4.47;;;3.70;;
63217;SDS011;49314;48.278;16.378;2023-07-20T07:21:10;5.03;;;3.50;;
63217;SDS011;49314;48.278;16.378;2023-07-20T07:23:35;4.10;;;3.57;;
63217;SDS011;49314;48.278;16.378;2023-07-20T07:26:00;4.97;;;3.17;;
63217;SDS011;49314;48.278;16.378;2023-07-20T07:28:25;7.00;;;3.77;;
63217;SDS011;49314;48.278;16.378;2023-07-20T07:30:51;3.60;;;3.27;;
63217;SDS011;49314;48.278;16.378;2023-07-20T07:33:16;6.33;;;3.20;;
63217;SDS011;49314;48.278;16.378;2023-07-20T07:35:41;4.00;;;3.50;;
63217;SDS011;49314;48.278;16.378;2023-07-20T07:38:06;4.30;;;3.60;;
63217;SDS011;49314;48.278;16.378;2023-07-20T07:40:32;3.80;;;3.40;;
63217;SDS011;49314;48.278;16.378;2023-07-20T07:42:57;3.40;;;3.10;;
63217;SDS011;49314;48.278;16.378;2023-07-20T07:45:22;3.67;;;3.37;;
63217;SDS011;49314;48.278;16.378;2023-07-20T07:47:47;6.17;;;2.93;;
63217;SDS011;49314;48.278;16.378;2023-07-20T07:50:13;7.30;;;4.07;;
63217;SDS011;49314;48.278;16.378;2023-07-20T07:52:38;4.13;;;3.73;;
63217;SDS011;49314;48.278;16.378;2023-07-20T07:55:03;4.00;;;3.53;;
63217;SDS011;49314;48.278;16.378;2023-07-20T07:57:29;3.60;;;3.30;;
63217;SDS011;49314;48.278;16.378;2023-07-20T07:59:54;4.63;;;4.10;;
63217;SDS011;49314;48.278;16.378;2023-07-20T08:02:19;3.30;;;2.87;;
63217;SDS011;49314;48.278;16.378;2023-07-20T08:04:44;4.63;;;3.67;;
63217;SDS011;49314;48.278;16.378;2023-07-20T08:07:10;4.43;;;3.57;;
63217;SDS011;49314;48.278;16.378;2023-07-20T08:09:35;5.20;;;3.67;;
63217;SDS011;49314;48.278;16.378;2023-07-20T08:12:00;3.50;;;3.13;;
63217;SDS011;49314;48.278;16.378;2023-07-20T08:14:25;6.90;;;2.97;;
63217;SDS011;49314;48.278;16.378;2023-07-20T08:16:51;5.40;;;3.30;;
63217;SDS011;49314;48.278;16.378;2023-07-20T08:19:16;4.13;;;3.13;;
63217;SDS011;49314;48.278;16.378;2023-07-20T08:21:42;4.90;;;3.07;;
63217;SDS011;49314;48.278;16.378;2023-07-20T08:24:07;4.17;;;2.80;;
63217;SDS011;49314;48.278;16.378;2023-07-20T08:26:32;3.17;;;2.87;;
63217;SDS011;49314;48.278;16.378;2023-07-20T08:28:57;4.80;;;3.00;;
63217;SDS011;49314;48.278;16.378;2023-07-20T08:31:23;3.60;;;3.30;;
63217;SDS011;49314;48.278;16.378;2023-07-20T08:33:48;5.78;;;3.47;;
63217;SDS011;49314;48.278;16.378;2023-07-20T08:36:14;3.80;;;3.37;;
63217;SDS011;49314;48.278;16.378;2023-07-20T08:38:39;4.20;;;3.20;;
63217;SDS011;49314;48.278;16.378;2023-07-20T08:41:04;5.67;;;2.97;;
63217;SDS011;49314;48.278;16.378;2023-07-20T08:43:29;4.07;;;2.80;;
63217;SDS011;49314;48.278;16.378;2023-07-20T08:45:55;3.35;;;3.05;;
63217;SDS011;49314;48.278;16.378;2023-07-20T08:48:21;4.75;;;3.08;;
63217;SDS011;49314;48.278;16.378;2023-07-20T08:50:47;3.70;;;3.40;;
63217;SDS011;49314;48.278;16.378;2023-07-20T08:53:12;5.68;;;3.38;;
63217;SDS011;49314;48.278;16.378;2023-07-20T08:55:39;5.53;;;3.70;;
63217;SDS011;49314;48.278;16.378;2023-07-20T08:58:04;7.28;;;3.55;;
63217;SDS011;49314;48.278;16.378;2023-07-20T09:00:32;5.53;;;3.42;;
63217;SDS011;49314;48.278;16.378;2023-07-20T09:02:57;6.53;;;3.78;;
63217;SDS011;49314;48.278;16.378;2023-07-20T09:05:23;4.53;;;3.42;;
63217;SDS011;49314;48.278;16.378;2023-07-20T09:07:50;6.97;;;4.00;;
63217;SDS011;49314;48.278;16.378;2023-07-20T09:10:15;3.97;;;3.65;;
63217;SDS011;49314;48.278;16.378;2023-07-20T09:12:41;5.97;;;3.17;;
63217;SDS011;49314;48.278;16.378;2023-07-20T09:15:08;4.25;;;3.50;;
63217;SDS011;49314;48.278;16.378;2023-07-20T09:17:33;5.10;;;3.50;;
63217;SDS011;49314;48.278;16.378;2023-07-20T09:20:01;3.58;;;3.25;;
63217;SDS011;49314;48.278;16.378;2023-07-20T09:22:29;4.93;;;3.10;;
63217;SDS011;49314;48.278;16.378;2023-07-20T09:24:55;5.75;;;3.40;;
63217;SDS011;49314;48.278;16.378;2023-07-20T09:27:20;7.10;;;3.23;;
63217;SDS011;49314;48.278;16.378;2023-07-20T09:29:49;9.03;;;3.70;;
63217;SDS011;49314;48.278;16.378;2023-07-20T09:32:17;4.65;;;3.80;;
63217;SDS011;49314;48.278;16.378;2023-07-20T09:34:43;7.75;;;3.85;;
63217;SDS011;49314;48.278;16.378;2023-07-20T09:37:08;5.15;;;3.45;;
63217;SDS011;49314;48.278;16.378;2023-07-20T09:39:41;5.00;;;3.55;;
63217;SDS011;49314;48.278;16.378;2023-07-20T09:42:07;5.63;;;3.88;;
63217;SDS011;49314;48.278;16.378;2023-07-20T09:44:33;5.80;;;3.88;;
63217;SDS011;49314;48.278;16.378;2023-07-20T09:46:59;4.18;;;3.42;;
63217;SDS011;49314;48.278;16.378;2023-07-20T09:49:24;5.90;;;3.53;;
63217;SDS011;49314;48.278;16.378;2023-07-20T09:51:49;3.67;;;3.00;;
63217;SDS011;49314;48.278;16.378;2023-07-20T09:54:15;4.15;;;3.75;;
63217;SDS011;49314;48.278;16.378;2023-07-20T09:56:41;5.55;;;3.60;;
63217;SDS011;49314;48.278;16.378;2023-07-20T09:59:07;6.15;;;3.55;;
63217;SDS011;49314;48.278;16.378;2023-07-20T10:01:32;5.47;;;3.80;;
63217;SDS011;49314;48.278;16.378;2023-07-20T10:03:59;5.78;;;3.40;;
63217;SDS011;49314;48.278;16.378;2023-07-20T10:06:27;4.70;;;3.35;;
63217;SDS011;49314;48.278;16.378;2023-07-20T10:08:53;4.88;;;3.30;;
63217;SDS011;49314;48.278;16.378;2023-07-20T10:11:21;5.80;;;3.40;;
63217;SDS011;49314;48.278;16.378;2023-07-20T10:13:47;4.35;;;3.85;;
63217;SDS011;49314;48.278;16.378;2023-07-20T10:16:50;3.95;;;3.38;;
63217;SDS011;49314;48.278;16.378;2023-07-20T10:19:07;4.78;;;3.38;;
63217;SDS011;49314;48.278;16.378;2023-07-20T10:21:37;3.90;;;3.20;;
63217;SDS011;49314;48.278;16.378;2023-07-20T10:24:05;3.22;;;2.83;;
63217;SDS011;49314;48.278;16.378;2023-07-20T10:26:30;4.47;;;3.38;;
63217;SDS011;49314;48.278;16.378;2023-07-20T10:28:56;5.18;;;2.95;;
63217;SDS011;49314;48.278;16.378;2023-07-20T10:31:22;4.75;;;3.50;;
63217;SDS011;49314;48.278;16.378;2023-07-20T10:33:48;6.85;;;3.42;;
63217;SDS011;49314;48.278;16.378;2023-07-20T10:36:15;3.05;;;2.85;;
63217;SDS011;49314;48.278;16.378;2023-07-20T10:41:57;3.55;;;3.25;;
63217;SDS011;49314;48.278;16.378;2023-07-20T10:44:04;4.90;;;3.65;;
63217;SDS011;49314;48.278;16.378;2023-07-20T10:46:50;4.00;;;3.22;;
63217;SDS011;49314;48.278;16.378;2023-07-20T10:49:15;3.10;;;2.80;;
63217;SDS011;49314;48.278;16.378;2023-07-20T10:51:44;3.50;;;3.07;;
63217;SDS011;49314;48.278;16.378;2023-07-20T10:54:54;5.53;;;3.13;;
63217;SDS011;49314;48.278;16.378;2023-07-20T10:56:55;5.30;;;3.95;;
63217;SDS011;49314;48.278;16.378;2023-07-20T11:01:49;4.15;;;2.97;;
63217;SDS011;49314;48.278;16.378;2023-07-20T11:04:15;3.55;;;2.40;;
63217;SDS011;49314;48.278;16.378;2023-07-20T11:06:45;4.00;;;2.35;;
63217;SDS011;49314;48.278;16.378;2023-07-20T11:09:14;2.40;;;2.17;;
63217;SDS011;49314;48.278;16.378;2023-07-20T11:11:49;3.90;;;2.75;;
63217;SDS011;49314;48.278;16.378;2023-07-20T11:14:23;2.25;;;1.63;;
63217;SDS011;49314;48.278;16.378;2023-07-20T11:16:49;2.63;;;2.42;;
63217;SDS011;49314;48.278;16.378;2023-07-20T11:19:17;3.65;;;1.90;;
63217;SDS011;49314;48.278;16.378;2023-07-20T11:21:43;2.83;;;2.03;;
63217;SDS011;49314;48.278;16.378;2023-07-20T11:24:08;3.15;;;2.85;;
63217;SDS011;49314;48.278;16.378;2023-07-20T11:31:34;2.13;;;1.92;;
63217;SDS011;49314;48.278;16.378;2023-07-20T11:33:59;2.53;;;2.33;;
63217;SDS011;49314;48.278;16.378;2023-07-20T11:36:25;3.73;;;1.83;;
63217;SDS011;49314;48.278;16.378;2023-07-20T11:38:50;3.23;;;2.03;;
63217;SDS011;49314;48.278;16.378;2023-07-20T11:41:16;3.30;;;2.33;;
63217;SDS011;49314;48.278;16.378;2023-07-20T11:43:41;3.15;;;2.05;;
63217;SDS011;49314;48.278;16.378;2023-07-20T11:46:07;3.28;;;2.05;;
63217;SDS011;49314;48.278;16.378;2023-07-20T11:48:32;4.03;;;2.40;;
63217;SDS011;49314;48.278;16.378;2023-07-20T11:50:57;3.27;;;2.03;;
63217;SDS011;49314;48.278;16.378;2023-07-20T11:53:24;2.30;;;2.10;;
63217;SDS011;49314;48.278;16.378;2023-07-20T11:55:49;2.80;;;2.00;;
63217;SDS011;49314;48.278;16.378;2023-07-20T11:58:14;2.90;;;2.60;;
63217;SDS011;49314;48.278;16.378;2023-07-20T12:00:41;2.53;;;2.33;;
63217;SDS011;49314;48.278;16.378;2023-07-20T12:03:09;2.53;;;2.00;;
63217;SDS011;49314;48.278;16.378;2023-07-20T12:05:35;2.35;;;2.15;;
63217;SDS011;49314;48.278;16.378;2023-07-20T12:08:01;4.93;;;2.53;;
63217;SDS011;49314;48.278;16.378;2023-07-20T12:10:26;2.10;;;2.00;;
63217;SDS011;49314;48.278;16.378;2023-07-20T12:12:53;4.28;;;2.63;;
63217;SDS011;49314;48.278;16.378;2023-07-20T12:15:22;3.08;;;2.05;;
63217;SDS011;49314;48.278;16.378;2023-07-20T12:17:52;2.35;;;1.95;;
63217;SDS011;49314;48.278;16.378;2023-07-20T12:20:27;2.70;;;2.10;;
63217;SDS011;49314;48.278;16.378;2023-07-20T12:22:52;1.92;;;1.80;;
63217;SDS011;49314;48.278;16.378;2023-07-20T12:25:19;4.55;;;1.85;;
63217;SDS011;49314;48.278;16.378;2023-07-20T12:27:45;4.20;;;2.10;;
63217;SDS011;49314;48.278;16.378;2023-07-20T12:30:10;3.13;;;2.00;;
63217;SDS011;49314;48.278;16.378;2023-07-20T12:32:35;4.37;;;1.93;;
63217;SDS011;49314;48.278;16.378;2023-07-20T12:35:01;4.17;;;1.70;;
63217;SDS011;49314;48.278;16.378;2023-07-20T12:37:26;3.87;;;1.87;;
63217;SDS011;49314;48.278;16.378;2023-07-20T12:39:52;2.72;;;2.03;;
63217;SDS011;49314;48.278;16.378;2023-07-20T12:42:17;2.40;;;2.20;;
63217;SDS011;49314;48.278;16.378;2023-07-20T12:44:42;2.37;;;1.80;;
63217;SDS011;49314;48.278;16.378;2023-07-20T12:47:07;2.67;;;2.10;;
63217;SDS011;49314;48.278;16.378;2023-07-20T12:49:33;2.83;;;1.80;;
63217;SDS011;49314;48.278;16.378;2023-07-20T12:51:58;2.10;;;1.90;;
63217;SDS011;49314;48.278;16.378;2023-07-20T12:54:23;4.43;;;2.03;;
63217;SDS011;49314;48.278;16.378;2023-07-20T12:56:48;3.33;;;1.90;;
63217;SDS011;49314;48.278;16.378;2023-07-20T12:59:14;3.05;;;1.70;;
63217;SDS011;49314;48.278;16.378;2023-07-20T13:01:39;3.67;;;1.57;;
63217;SDS011;49314;48.278;16.378;2023-07-20T13:04:06;2.20;;;1.58;;
63217;SDS011;49314;48.278;16.378;2023-07-20T13:06:34;2.95;;;1.67;;
63217;SDS011;49314;48.278;16.378;2023-07-20T13:09:01;2.70;;;1.90;;
63217;SDS011;49314;48.278;16.378;2023-07-20T13:11:27;3.22;;;1.95;;
63217;SDS011;49314;48.278;16.378;2023-07-20T13:13:52;3.13;;;1.90;;
63217;SDS011;49314;48.278;16.378;2023-07-20T13:16:17;2.97;;;1.53;;
63217;SDS011;49314;48.278;16.378;2023-07-20T13:18:42;2.57;;;2.20;;
63217;SDS011;49314;48.278;16.378;2023-07-20T13:21:08;2.10;;;1.77;;
63217;SDS011;49314;48.278;16.378;2023-07-20T13:23:36;2.92;;;1.55;;
63217;SDS011;49314;48.278;16.378;2023-07-20T13:26:02;3.83;;;2.28;;
63217;SDS011;49314;48.278;16.378;2023-07-20T13:28:27;3.30;;;1.97;;
63217;SDS011;49314;48.278;16.378;2023-07-20T13:30:52;3.70;;;2.43;;
63217;SDS011;49314;48.278;16.378;2023-07-20T13:33:17;3.43;;;1.93;;
63217;SDS011;49314;48.278;16.378;2023-07-20T13:35:42;4.43;;;2.83;;
63217;SDS011;49314;48.278;16.378;2023-07-20T13:38:08;2.30;;;2.10;;
63217;SDS011;49314;48.278;16.378;2023-07-20T13:40:33;3.10;;;1.73;;
63217;SDS011;49314;48.278;16.378;2023-07-20T13:42:58;2.60;;;1.93;;
63217;SDS011;49314;48.278;16.378;2023-07-20T13:45:24;3.27;;;2.50;;
63217;SDS011;49314;48.278;16.378;2023-07-20T13:47:49;3.03;;;2.03;;
63217;SDS011;49314;48.278;16.378;2023-07-20T13:50:14;4.53;;;2.87;;
63217;SDS011;49314;48.278;16.378;2023-07-20T13:52:40;2.60;;;2.20;;
63217;SDS011;49314;48.278;16.378;2023-07-20T13:55:05;4.28;;;2.20;;
63217;SDS011;49314;48.278;16.378;2023-07-20T13:57:31;2.65;;;2.45;;
63217;SDS011;49314;48.278;16.378;2023-07-20T13:59:56;4.90;;;2.50;;
63217;SDS011;49314;48.278;16.378;2023-07-20T14:02:22;2.83;;;1.93;;
63217;SDS011;49314;48.278;16.378;2023-07-20T14:04:47;2.87;;;2.10;;
63217;SDS011;49314;48.278;16.378;2023-07-20T14:07:13;3.20;;;1.98;;
63217;SDS011;49314;48.278;16.378;2023-07-20T14:09:38;3.47;;;2.10;;
63217;SDS011;49314;48.278;16.378;2023-07-20T14:12:04;3.10;;;2.20;;
63217;SDS011;49314;48.278;16.378;2023-07-20T14:14:29;2.42;;;1.65;;
63217;SDS011;49314;48.278;16.378;2023-07-20T14:16:54;2.90;;;2.30;;
63217;SDS011;49314;48.278;16.378;2023-07-20T14:19:21;1.95;;;1.85;;
63217;SDS011;49314;48.278;16.378;2023-07-20T14:21:46;2.60;;;2.38;;
63217;SDS011;49314;48.278;16.378;2023-07-20T14:24:12;2.20;;;2.00;;
63217;SDS011;49314;48.278;16.378;2023-07-20T14:26:37;3.20;;;2.42;;
63217;SDS011;49314;48.278;16.378;2023-07-20T14:29:02;2.93;;;2.30;;
63217;SDS011;49314;48.278;16.378;2023-07-20T14:31:27;4.23;;;1.87;;
63217;SDS011;49314;48.278;16.378;2023-07-20T14:33:53;2.73;;;2.50;;
63217;SDS011;49314;48.278;16.378;2023-07-20T14:36:18;3.03;;;2.10;;
63217;SDS011;49314;48.278;16.378;2023-07-20T14:38:43;3.47;;;2.80;;
63217;SDS011;49314;48.278;16.378;2023-07-20T14:41:08;7.27;;;3.27;;
63217;SDS011;49314;48.278;16.378;2023-07-20T14:43:34;4.70;;;2.10;;